sensor_id;sensor_type;location;lat;lon;timestamp;temperature;humidity
10437;DHT22;5265;50.006;9.202;2023-04-15T00:00:35;4.40;99.90
10437;DHT22;5265;50.006;9.202;2023-04-15T00:03:03;4.30;99.90
10437;DHT22;5265;50.006;9.202;2023-04-15T00:05:30;4.10;99.90
10437;DHT22;5265;50.006;9.202;2023-04-15T00:07:58;4.60;99.90
10437;DHT22;5265;50.006;9.202;2023-04-15T00:10:27;3.90;99.90
10437;DHT22;5265;50.006;9.202;2023-04-15T00:12:54;4.10;99.90
10437;DHT22;5265;50.006;9.202;2023-04-15T00:15:21;4.10;99.90
10437;DHT22;5265;50.006;9.202;2023-04-15T00:17:49;4.10;99.90
10437;DHT22;5265;50.006;9.202;2023-04-15T00:20:16;4.10;99.90
10437;DHT22;5265;50.006;9.202;2023-04-15T00:22:43;4.20;99.90
10437;DHT22;5265;50.006;9.202;2023-04-15T00:25:11;4.30;99.90
10437;DHT22;5265;50.006;9.202;2023-04-15T00:27:39;4.20;99.90
10437;DHT22;5265;50.006;9.202;2023-04-15T00:30:07;4.10;99.90
10437;DHT22;5265;50.006;9.202;2023-04-15T00:32:34;4.10;99.90
10437;DHT22;5265;50.006;9.202;2023-04-15T00:35:01;4.20;99.90
10437;DHT22;5265;50.006;9.202;2023-04-15T00:37:28;4.00;99.90
10437;DHT22;5265;50.006;9.202;2023-04-15T00:39:56;4.10;99.90
10437;DHT22;5265;50.006;9.202;2023-04-15T00:42:23;4.00;99.90
10437;DHT22;5265;50.006;9.202;2023-04-15T00:44:52;4.20;99.90
10437;DHT22;5265;50.006;9.202;2023-04-15T00:47:21;4.00;99.90
10437;DHT22;5265;50.006;9.202;2023-04-15T00:49:48;4.70;99.90
10437;DHT22;5265;50.006;9.202;2023-04-15T00:52:17;4.20;99.90
10437;DHT22;5265;50.006;9.202;2023-04-15T00:54:44;4.10;99.90
10437;DHT22;5265;50.006;9.202;2023-04-15T00:57:11;4.10;99.90
10437;DHT22;5265;50.006;9.202;2023-04-15T00:59:38;4.60;99.90
10437;DHT22;5265;50.006;9.202;2023-04-15T01:02:07;4.10;99.90
10437;DHT22;5265;50.006;9.202;2023-04-15T01:04:34;4.10;99.90
10437;DHT22;5265;50.006;9.202;2023-04-15T01:07:01;4.10;99.90
10437;DHT22;5265;50.006;9.202;2023-04-15T01:09:28;4.20;99.90
10437;DHT22;5265;50.006;9.202;2023-04-15T01:11:55;4.10;99.90
10437;DHT22;5265;50.006;9.202;2023-04-15T01:14:23;4.10;99.90
10437;DHT22;5265;50.006;9.202;2023-04-15T01:16:51;3.90;99.90
10437;DHT22;5265;50.006;9.202;2023-04-15T01:19:20;3.90;99.90
10437;DHT22;5265;50.006;9.202;2023-04-15T01:21:47;4.20;99.90
10437;DHT22;5265;50.006;9.202;2023-04-15T01:24:14;4.00;99.90
10437;DHT22;5265;50.006;9.202;2023-04-15T01:26:45;3.90;99.90
10437;DHT22;5265;50.006;9.202;2023-04-15T01:29:13;3.90;99.90
10437;DHT22;5265;50.006;9.202;2023-04-15T01:31:44;3.60;99.90
10437;DHT22;5265;50.006;9.202;2023-04-15T01:34:16;3.70;99.90
10437;DHT22;5265;50.006;9.202;2023-04-15T01:36:43;3.90;99.90
10437;DHT22;5265;50.006;9.202;2023-04-15T01:39:10;3.90;99.90
10437;DHT22;5265;50.006;9.202;2023-04-15T01:41:37;3.90;99.90
10437;DHT22;5265;50.006;9.202;2023-04-15T01:44:07;3.90;99.90
10437;DHT22;5265;50.006;9.202;2023-04-15T01:46:34;3.90;99.90
10437;DHT22;5265;50.006;9.202;2023-04-15T01:49:01;3.80;99.90
10437;DHT22;5265;50.006;9.202;2023-04-15T01:51:30;4.00;99.90
10437;DHT22;5265;50.006;9.202;2023-04-15T01:53:57;4.00;99.90
10437;DHT22;5265;50.006;9.202;2023-04-15T01:56:24;4.00;99.90
10437;DHT22;5265;50.006;9.202;2023-04-15T01:58:51;4.00;99.90
10437;DHT22;5265;50.006;9.202;2023-04-15T02:01:19;3.80;99.90
10437;DHT22;5265;50.006;9.202;2023-04-15T02:03:47;3.90;99.90
10437;DHT22;5265;50.006;9.202;2023-04-15T02:06:14;3.80;99.90
10437;DHT22;5265;50.006;9.202;2023-04-15T02:08:41;4.20;99.90
10437;DHT22;5265;50.006;9.202;2023-04-15T02:11:08;3.70;99.90
10437;DHT22;5265;50.006;9.202;2023-04-15T02:13:36;3.80;99.90
10437;DHT22;5265;50.006;9.202;2023-04-15T02:16:03;4.10;99.90
10437;DHT22;5265;50.006;9.202;2023-04-15T02:18:31;3.80;99.90
10437;DHT22;5265;50.006;9.202;2023-04-15T02:20:58;3.70;99.90
10437;DHT22;5265;50.006;9.202;2023-04-15T02:23:25;3.70;99.90
10437;DHT22;5265;50.006;9.202;2023-04-15T02:25:52;3.90;99.90
10437;DHT22;5265;50.006;9.202;2023-04-15T02:28:19;3.90;99.90
10437;DHT22;5265;50.006;9.202;2023-04-15T02:30:47;3.70;99.90
10437;DHT22;5265;50.006;9.202;2023-04-15T02:33:15;3.90;99.90
10437;DHT22;5265;50.006;9.202;2023-04-15T02:35:44;3.90;99.90
10437;DHT22;5265;50.006;9.202;2023-04-15T02:38:12;3.90;99.90
10437;DHT22;5265;50.006;9.202;2023-04-15T02:40:41;3.90;99.90
10437;DHT22;5265;50.006;9.202;2023-04-15T02:43:08;3.80;99.90
10437;DHT22;5265;50.006;9.202;2023-04-15T02:45:37;4.00;99.90
10437;DHT22;5265;50.006;9.202;2023-04-15T02:48:04;4.00;99.90
10437;DHT22;5265;50.006;9.202;2023-04-15T02:50:32;4.00;99.90
10437;DHT22;5265;50.006;9.202;2023-04-15T02:53:00;3.70;99.90
10437;DHT22;5265;50.006;9.202;2023-04-15T02:55:28;4.20;99.90
10437;DHT22;5265;50.006;9.202;2023-04-15T02:57:55;4.10;99.90
10437;DHT22;5265;50.006;9.202;2023-04-15T03:00:24;3.80;99.90
10437;DHT22;5265;50.006;9.202;2023-04-15T03:02:56;4.00;99.90
10437;DHT22;5265;50.006;9.202;2023-04-15T03:05:23;3.90;99.90
10437;DHT22;5265;50.006;9.202;2023-04-15T03:07:51;3.80;99.90
10437;DHT22;5265;50.006;9.202;2023-04-15T03:10:20;3.90;99.90
10437;DHT22;5265;50.006;9.202;2023-04-15T03:12:47;3.90;99.90
10437;DHT22;5265;50.006;9.202;2023-04-15T03:15:17;3.90;99.90
10437;DHT22;5265;50.006;9.202;2023-04-15T03:17:48;3.70;99.90
10437;DHT22;5265;50.006;9.202;2023-04-15T03:20:16;4.00;99.90
10437;DHT22;5265;50.006;9.202;2023-04-15T03:22:43;3.80;99.90
10437;DHT22;5265;50.006;9.202;2023-04-15T03:25:10;3.80;99.90
10437;DHT22;5265;50.006;9.202;2023-04-15T03:27:40;3.80;99.90
10437;DHT22;5265;50.006;9.202;2023-04-15T03:30:08;3.90;99.90
10437;DHT22;5265;50.006;9.202;2023-04-15T03:32:37;3.80;99.90
10437;DHT22;5265;50.006;9.202;2023-04-15T03:35:06;4.00;99.90
10437;DHT22;5265;50.006;9.202;2023-04-15T03:37:33;3.80;99.90
10437;DHT22;5265;50.006;9.202;2023-04-15T03:40:00;3.80;99.90
10437;DHT22;5265;50.006;9.202;2023-04-15T03:42:27;3.90;99.90
10437;DHT22;5265;50.006;9.202;2023-04-15T03:44:55;4.00;99.90
10437;DHT22;5265;50.006;9.202;2023-04-15T03:47:22;3.90;99.90
10437;DHT22;5265;50.006;9.202;2023-04-15T03:49:50;3.90;99.90
10437;DHT22;5265;50.006;9.202;2023-04-15T03:52:17;4.70;99.90
10437;DHT22;5265;50.006;9.202;2023-04-15T03:54:44;4.00;99.90
10437;DHT22;5265;50.006;9.202;2023-04-15T03:57:11;3.80;99.90
10437;DHT22;5265;50.006;9.202;2023-04-15T03:59:38;4.10;99.90
10437;DHT22;5265;50.006;9.202;2023-04-15T04:02:07;3.80;99.90
10437;DHT22;5265;50.006;9.202;2023-04-15T04:04:34;3.80;99.90
10437;DHT22;5265;50.006;9.202;2023-04-15T04:07:01;4.00;99.90
10437;DHT22;5265;50.006;9.202;2023-04-15T04:09:28;4.30;99.90
10437;DHT22;5265;50.006;9.202;2023-04-15T04:11:55;3.80;99.90
10437;DHT22;5265;50.006;9.202;2023-04-15T04:14:23;3.90;99.90
10437;DHT22;5265;50.006;9.202;2023-04-15T04:16:54;4.20;99.90
10437;DHT22;5265;50.006;9.202;2023-04-15T04:19:23;3.80;99.90
10437;DHT22;5265;50.006;9.202;2023-04-15T04:21:50;3.70;99.90
10437;DHT22;5265;50.006;9.202;2023-04-15T04:24:18;3.80;99.90
10437;DHT22;5265;50.006;9.202;2023-04-15T04:26:45;3.90;99.90
10437;DHT22;5265;50.006;9.202;2023-04-15T04:29:12;4.20;99.90
10437;DHT22;5265;50.006;9.202;2023-04-15T04:31:39;3.90;99.90
10437;DHT22;5265;50.006;9.202;2023-04-15T04:34:06;4.10;99.90
10437;DHT22;5265;50.006;9.202;2023-04-15T04:36:35;4.00;99.90
10437;DHT22;5265;50.006;9.202;2023-04-15T04:39:02;3.80;99.90
10437;DHT22;5265;50.006;9.202;2023-04-15T04:41:29;4.00;99.90
10437;DHT22;5265;50.006;9.202;2023-04-15T04:43:56;4.00;99.90
10437;DHT22;5265;50.006;9.202;2023-04-15T04:46:23;3.80;99.90
10437;DHT22;5265;50.006;9.202;2023-04-15T04:48:51;3.90;99.90
10437;DHT22;5265;50.006;9.202;2023-04-15T04:51:18;4.00;99.90
10437;DHT22;5265;50.006;9.202;2023-04-15T04:53:47;3.80;99.90
10437;DHT22;5265;50.006;9.202;2023-04-15T04:56:13;3.90;99.90
10437;DHT22;5265;50.006;9.202;2023-04-15T04:58:40;4.80;99.90
10437;DHT22;5265;50.006;9.202;2023-04-15T05:01:08;4.10;99.90
10437;DHT22;5265;50.006;9.202;2023-04-15T05:03:35;4.10;99.90
10437;DHT22;5265;50.006;9.202;2023-04-15T05:06:02;4.00;99.90
10437;DHT22;5265;50.006;9.202;2023-04-15T05:08:31;3.80;99.90
10437;DHT22;5265;50.006;9.202;2023-04-15T05:10:59;3.90;99.90
10437;DHT22;5265;50.006;9.202;2023-04-15T05:13:26;3.90;99.90
10437;DHT22;5265;50.006;9.202;2023-04-15T05:15:54;3.80;99.90
10437;DHT22;5265;50.006;9.202;2023-04-15T05:18:21;4.00;99.90
10437;DHT22;5265;50.006;9.202;2023-04-15T05:20:48;3.90;99.90
10437;DHT22;5265;50.006;9.202;2023-04-15T05:23:15;4.00;99.90
10437;DHT22;5265;50.006;9.202;2023-04-15T05:25:42;4.00;99.90
10437;DHT22;5265;50.006;9.202;2023-04-15T05:28:11;4.20;99.90
10437;DHT22;5265;50.006;9.202;2023-04-15T05:30:38;4.20;99.90
10437;DHT22;5265;50.006;9.202;2023-04-15T05:33:05;4.10;99.90
10437;DHT22;5265;50.006;9.202;2023-04-15T05:35:33;4.20;99.90
10437;DHT22;5265;50.006;9.202;2023-04-15T05:38:00;5.40;99.90
10437;DHT22;5265;50.006;9.202;2023-04-15T05:40:27;4.10;99.90
10437;DHT22;5265;50.006;9.202;2023-04-15T05:42:54;4.20;99.90
10437;DHT22;5265;50.006;9.202;2023-04-15T05:45:23;4.40;99.90
10437;DHT22;5265;50.006;9.202;2023-04-15T05:47:50;4.40;99.90
10437;DHT22;5265;50.006;9.202;2023-04-15T05:50:18;4.40;99.90
10437;DHT22;5265;50.006;9.202;2023-04-15T05:52:46;4.50;99.90
10437;DHT22;5265;50.006;9.202;2023-04-15T05:55:13;4.60;99.90
10437;DHT22;5265;50.006;9.202;2023-04-15T05:57:40;5.50;99.90
10437;DHT22;5265;50.006;9.202;2023-04-15T06:00:08;4.70;99.90
10437;DHT22;5265;50.006;9.202;2023-04-15T06:02:37;4.80;99.90
10437;DHT22;5265;50.006;9.202;2023-04-15T06:05:04;4.70;99.90
10437;DHT22;5265;50.006;9.202;2023-04-15T06:07:34;4.80;99.90
10437;DHT22;5265;50.006;9.202;2023-04-15T06:10:01;4.80;99.90
10437;DHT22;5265;50.006;9.202;2023-04-15T06:12:28;5.00;99.90
10437;DHT22;5265;50.006;9.202;2023-04-15T06:14:55;5.10;99.90
10437;DHT22;5265;50.006;9.202;2023-04-15T06:17:22;5.20;99.90
10437;DHT22;5265;50.006;9.202;2023-04-15T06:19:51;5.00;99.90
10437;DHT22;5265;50.006;9.202;2023-04-15T06:22:20;5.30;99.90
10437;DHT22;5265;50.006;9.202;2023-04-15T06:24:47;5.20;99.90
10437;DHT22;5265;50.006;9.202;2023-04-15T06:27:15;6.10;99.90
10437;DHT22;5265;50.006;9.202;2023-04-15T06:29:42;5.30;99.90
10437;DHT22;5265;50.006;9.202;2023-04-15T06:32:09;5.50;99.90
10437;DHT22;5265;50.006;9.202;2023-04-15T06:34:37;5.60;99.90
10437;DHT22;5265;50.006;9.202;2023-04-15T06:37:05;5.80;99.90
10437;DHT22;5265;50.006;9.202;2023-04-15T06:39:34;6.20;99.90
10437;DHT22;5265;50.006;9.202;2023-04-15T06:42:02;5.80;99.90
10437;DHT22;5265;50.006;9.202;2023-04-15T06:44:29;5.90;99.90
10437;DHT22;5265;50.006;9.202;2023-04-15T06:46:56;5.90;99.90
10437;DHT22;5265;50.006;9.202;2023-04-15T06:49:23;6.10;99.90
10437;DHT22;5265;50.006;9.202;2023-04-15T06:51:51;6.10;99.90
10437;DHT22;5265;50.006;9.202;2023-04-15T06:54:20;6.50;99.90
10437;DHT22;5265;50.006;9.202;2023-04-15T06:56:47;6.40;99.90
10437;DHT22;5265;50.006;9.202;2023-04-15T06:59:14;6.80;99.90
10437;DHT22;5265;50.006;9.202;2023-04-15T07:01:41;6.60;99.90
10437;DHT22;5265;50.006;9.202;2023-04-15T07:04:09;6.40;99.90
10437;DHT22;5265;50.006;9.202;2023-04-15T07:06:37;6.80;99.90
10437;DHT22;5265;50.006;9.202;2023-04-15T07:09:04;7.30;99.90
10437;DHT22;5265;50.006;9.202;2023-04-15T07:11:32;6.50;99.90
10437;DHT22;5265;50.006;9.202;2023-04-15T07:14:00;6.60;99.90
10437;DHT22;5265;50.006;9.202;2023-04-15T07:16:28;6.70;99.90
10437;DHT22;5265;50.006;9.202;2023-04-15T07:18:55;6.60;99.90
10437;DHT22;5265;50.006;9.202;2023-04-15T07:21:23;7.00;99.90
10437;DHT22;5265;50.006;9.202;2023-04-15T07:23:50;6.60;99.90
10437;DHT22;5265;50.006;9.202;2023-04-15T07:26:17;6.70;99.90
10437;DHT22;5265;50.006;9.202;2023-04-15T07:28:45;7.10;99.90
10437;DHT22;5265;50.006;9.202;2023-04-15T07:31:13;6.90;99.90
10437;DHT22;5265;50.006;9.202;2023-04-15T07:33:40;6.80;99.90
10437;DHT22;5265;50.006;9.202;2023-04-15T07:36:08;6.90;99.90
10437;DHT22;5265;50.006;9.202;2023-04-15T07:38:35;6.90;99.90
10437;DHT22;5265;50.006;9.202;2023-04-15T07:41:02;6.80;99.90
10437;DHT22;5265;50.006;9.202;2023-04-15T07:43:30;7.00;99.90
10437;DHT22;5265;50.006;9.202;2023-04-15T07:45:58;7.10;99.90
10437;DHT22;5265;50.006;9.202;2023-04-15T07:48:26;7.20;99.90
10437;DHT22;5265;50.006;9.202;2023-04-15T07:50:53;7.20;99.90
10437;DHT22;5265;50.006;9.202;2023-04-15T07:53:20;7.30;99.90
10437;DHT22;5265;50.006;9.202;2023-04-15T07:55:47;7.20;99.90
10437;DHT22;5265;50.006;9.202;2023-04-15T07:58:14;7.30;99.90
10437;DHT22;5265;50.006;9.202;2023-04-15T08:00:41;7.40;99.90
10437;DHT22;5265;50.006;9.202;2023-04-15T08:03:10;7.40;99.90
10437;DHT22;5265;50.006;9.202;2023-04-15T08:05:37;7.60;99.90
10437;DHT22;5265;50.006;9.202;2023-04-15T08:08:04;7.70;99.90
10437;DHT22;5265;50.006;9.202;2023-04-15T08:10:31;7.90;99.90
10437;DHT22;5265;50.006;9.202;2023-04-15T08:12:59;8.10;99.90
10437;DHT22;5265;50.006;9.202;2023-04-15T08:15:26;8.30;99.90
10437;DHT22;5265;50.006;9.202;2023-04-15T08:17:53;8.40;99.90
10437;DHT22;5265;50.006;9.202;2023-04-15T08:20:21;8.50;99.90
10437;DHT22;5265;50.006;9.202;2023-04-15T08:22:48;8.70;99.90
10437;DHT22;5265;50.006;9.202;2023-04-15T08:25:16;8.80;99.90
10437;DHT22;5265;50.006;9.202;2023-04-15T08:27:44;8.90;99.90
10437;DHT22;5265;50.006;9.202;2023-04-15T08:30:11;8.80;99.90
10437;DHT22;5265;50.006;9.202;2023-04-15T08:32:38;8.70;99.90
10437;DHT22;5265;50.006;9.202;2023-04-15T08:35:06;8.80;99.90
10437;DHT22;5265;50.006;9.202;2023-04-15T08:37:35;8.80;99.90
10437;DHT22;5265;50.006;9.202;2023-04-15T08:40:02;8.80;99.90
10437;DHT22;5265;50.006;9.202;2023-04-15T08:42:30;9.00;99.90
10437;DHT22;5265;50.006;9.202;2023-04-15T08:44:57;9.20;99.90
10437;DHT22;5265;50.006;9.202;2023-04-15T08:47:25;9.30;99.90
10437;DHT22;5265;50.006;9.202;2023-04-15T08:49:54;9.50;99.90
10437;DHT22;5265;50.006;9.202;2023-04-15T08:52:23;9.60;99.90
10437;DHT22;5265;50.006;9.202;2023-04-15T08:54:53;9.90;99.90
10437;DHT22;5265;50.006;9.202;2023-04-15T08:57:23;10.10;99.90
10437;DHT22;5265;50.006;9.202;2023-04-15T08:59:51;10.20;99.90
10437;DHT22;5265;50.006;9.202;2023-04-15T09:02:19;10.30;99.90
10437;DHT22;5265;50.006;9.202;2023-04-15T09:04:46;10.40;99.90
10437;DHT22;5265;50.006;9.202;2023-04-15T09:07:13;10.40;99.90
10437;DHT22;5265;50.006;9.202;2023-04-15T09:09:41;10.40;99.90
10437;DHT22;5265;50.006;9.202;2023-04-15T09:12:10;10.40;99.90
10437;DHT22;5265;50.006;9.202;2023-04-15T09:14:37;10.50;99.90
10437;DHT22;5265;50.006;9.202;2023-04-15T09:17:07;10.60;99.90
10437;DHT22;5265;50.006;9.202;2023-04-15T09:19:36;10.60;99.90
10437;DHT22;5265;50.006;9.202;2023-04-15T09:22:03;10.70;99.90
10437;DHT22;5265;50.006;9.202;2023-04-15T09:24:34;10.70;99.90
10437;DHT22;5265;50.006;9.202;2023-04-15T09:27:03;10.60;99.90
10437;DHT22;5265;50.006;9.202;2023-04-15T09:29:31;10.60;99.90
10437;DHT22;5265;50.006;9.202;2023-04-15T09:32:08;10.50;99.90
10437;DHT22;5265;50.006;9.202;2023-04-15T09:34:35;10.50;99.90
10437;DHT22;5265;50.006;9.202;2023-04-15T09:37:02;10.50;99.90
10437;DHT22;5265;50.006;9.202;2023-04-15T09:39:44;10.40;99.90
10437;DHT22;5265;50.006;9.202;2023-04-15T09:42:11;10.50;99.90
10437;DHT22;5265;50.006;9.202;2023-04-15T09:44:40;10.50;99.90
10437;DHT22;5265;50.006;9.202;2023-04-15T09:47:07;10.50;99.90
10437;DHT22;5265;50.006;9.202;2023-04-15T09:49:34;10.60;99.90
10437;DHT22;5265;50.006;9.202;2023-04-15T09:52:01;10.60;99.90
10437;DHT22;5265;50.006;9.202;2023-04-15T09:54:32;10.60;99.90
10437;DHT22;5265;50.006;9.202;2023-04-15T09:57:04;10.70;99.90
10437;DHT22;5265;50.006;9.202;2023-04-15T09:59:31;10.80;99.90
10437;DHT22;5265;50.006;9.202;2023-04-15T10:01:59;10.60;99.90
10437;DHT22;5265;50.006;9.202;2023-04-15T10:04:27;10.70;99.90
10437;DHT22;5265;50.006;9.202;2023-04-15T10:06:55;10.80;99.90
10437;DHT22;5265;50.006;9.202;2023-04-15T10:09:23;10.80;99.90
10437;DHT22;5265;50.006;9.202;2023-04-15T10:11:50;10.80;99.90
10437;DHT22;5265;50.006;9.202;2023-04-15T10:14:17;10.70;99.90
10437;DHT22;5265;50.006;9.202;2023-04-15T10:16:44;10.60;99.90
10437;DHT22;5265;50.006;9.202;2023-04-15T10:19:15;10.70;99.90
10437;DHT22;5265;50.006;9.202;2023-04-15T10:21:44;10.70;99.90
10437;DHT22;5265;50.006;9.202;2023-04-15T10:24:11;10.70;99.90
10437;DHT22;5265;50.006;9.202;2023-04-15T10:26:39;10.70;99.90
10437;DHT22;5265;50.006;9.202;2023-04-15T10:29:06;10.80;99.90
10437;DHT22;5265;50.006;9.202;2023-04-15T10:31:33;10.80;99.90
10437;DHT22;5265;50.006;9.202;2023-04-15T10:34:02;10.90;99.90
10437;DHT22;5265;50.006;9.202;2023-04-15T10:36:32;10.90;99.90
10437;DHT22;5265;50.006;9.202;2023-04-15T10:38:59;10.80;99.90
10437;DHT22;5265;50.006;9.202;2023-04-15T10:41:27;10.80;99.90
10437;DHT22;5265;50.006;9.202;2023-04-15T10:43:56;10.70;99.90
10437;DHT22;5265;50.006;9.202;2023-04-15T10:46:33;10.70;99.90
10437;DHT22;5265;50.006;9.202;2023-04-15T10:49:05;10.60;99.90
10437;DHT22;5265;50.006;9.202;2023-04-15T10:51:35;10.60;99.90
10437;DHT22;5265;50.006;9.202;2023-04-15T10:54:08;10.40;99.90
10437;DHT22;5265;50.006;9.202;2023-04-15T10:56:34;10.40;99.90
10437;DHT22;5265;50.006;9.202;2023-04-15T10:59:01;10.40;99.90
10437;DHT22;5265;50.006;9.202;2023-04-15T11:01:49;10.30;99.90
10437;DHT22;5265;50.006;9.202;2023-04-15T11:07:05;10.00;99.90
10437;DHT22;5265;50.006;9.202;2023-04-15T11:09:33;9.80;99.90
10437;DHT22;5265;50.006;9.202;2023-04-15T11:12:06;9.70;99.90
10437;DHT22;5265;50.006;9.202;2023-04-15T11:14:36;9.60;99.90
10437;DHT22;5265;50.006;9.202;2023-04-15T11:17:05;9.60;99.90
10437;DHT22;5265;50.006;9.202;2023-04-15T11:19:35;9.60;99.90
10437;DHT22;5265;50.006;9.202;2023-04-15T11:22:08;9.60;99.90
10437;DHT22;5265;50.006;9.202;2023-04-15T11:24:35;9.60;99.90
10437;DHT22;5265;50.006;9.202;2023-04-15T11:27:02;9.50;99.90
10437;DHT22;5265;50.006;9.202;2023-04-15T11:29:30;9.30;99.90
10437;DHT22;5265;50.006;9.202;2023-04-15T11:32:03;9.40;99.90
10437;DHT22;5265;50.006;9.202;2023-04-15T11:34:30;9.40;99.90
10437;DHT22;5265;50.006;9.202;2023-04-15T11:36:57;9.40;99.90
10437;DHT22;5265;50.006;9.202;2023-04-15T11:39:26;9.40;99.90
10437;DHT22;5265;50.006;9.202;2023-04-15T11:41:54;9.50;99.90
10437;DHT22;5265;50.006;9.202;2023-04-15T11:44:21;9.40;99.90
10437;DHT22;5265;50.006;9.202;2023-04-15T11:46:48;9.50;99.90
10437;DHT22;5265;50.006;9.202;2023-04-15T11:49:24;9.40;99.90
10437;DHT22;5265;50.006;9.202;2023-04-15T11:51:52;9.50;99.90
10437;DHT22;5265;50.006;9.202;2023-04-15T11:54:18;9.60;99.90
10437;DHT22;5265;50.006;9.202;2023-04-15T11:56:50;9.60;99.90
10437;DHT22;5265;50.006;9.202;2023-04-15T11:59:17;9.60;99.90
10437;DHT22;5265;50.006;9.202;2023-04-15T12:01:44;9.60;99.90
10437;DHT22;5265;50.006;9.202;2023-04-15T12:04:12;9.70;99.90
10437;DHT22;5265;50.006;9.202;2023-04-15T12:06:39;9.60;99.90
10437;DHT22;5265;50.006;9.202;2023-04-15T12:09:07;9.70;99.90
10437;DHT22;5265;50.006;9.202;2023-04-15T12:11:35;9.80;99.90
10437;DHT22;5265;50.006;9.202;2023-04-15T12:14:05;9.80;99.90
10437;DHT22;5265;50.006;9.202;2023-04-15T12:16:32;9.70;99.90
10437;DHT22;5265;50.006;9.202;2023-04-15T12:18:59;9.60;99.90
10437;DHT22;5265;50.006;9.202;2023-04-15T12:21:32;9.60;99.90
10437;DHT22;5265;50.006;9.202;2023-04-15T12:24:00;9.50;99.90
10437;DHT22;5265;50.006;9.202;2023-04-15T12:26:28;9.50;99.90
10437;DHT22;5265;50.006;9.202;2023-04-15T12:28:59;9.30;99.90
10437;DHT22;5265;50.006;9.202;2023-04-15T12:31:28;9.20;99.90
10437;DHT22;5265;50.006;9.202;2023-04-15T12:33:55;8.90;99.90
10437;DHT22;5265;50.006;9.202;2023-04-15T12:36:22;9.00;99.90
10437;DHT22;5265;50.006;9.202;2023-04-15T12:38:49;9.10;99.90
10437;DHT22;5265;50.006;9.202;2023-04-15T12:41:16;9.20;99.90
10437;DHT22;5265;50.006;9.202;2023-04-15T12:43:43;9.10;99.90
10437;DHT22;5265;50.006;9.202;2023-04-15T12:46:11;9.10;99.90
10437;DHT22;5265;50.006;9.202;2023-04-15T12:48:40;9.00;99.90
10437;DHT22;5265;50.006;9.202;2023-04-15T12:51:07;9.10;99.90
10437;DHT22;5265;50.006;9.202;2023-04-15T12:53:33;9.00;99.90
10437;DHT22;5265;50.006;9.202;2023-04-15T12:56:00;9.00;99.90
10437;DHT22;5265;50.006;9.202;2023-04-15T12:58:27;9.00;99.90
10437;DHT22;5265;50.006;9.202;2023-04-15T13:00:54;9.00;99.90
10437;DHT22;5265;50.006;9.202;2023-04-15T13:03:21;9.00;99.90
10437;DHT22;5265;50.006;9.202;2023-04-15T13:05:50;9.00;99.90
10437;DHT22;5265;50.006;9.202;2023-04-15T13:08:17;9.10;99.90
10437;DHT22;5265;50.006;9.202;2023-04-15T13:10:44;9.10;99.90
10437;DHT22;5265;50.006;9.202;2023-04-15T13:13:12;9.10;99.90
10437;DHT22;5265;50.006;9.202;2023-04-15T13:15:39;9.00;99.90
10437;DHT22;5265;50.006;9.202;2023-04-15T13:18:06;9.00;99.90
10437;DHT22;5265;50.006;9.202;2023-04-15T13:20:33;9.00;99.90
10437;DHT22;5265;50.006;9.202;2023-04-15T13:23:01;9.10;99.90
10437;DHT22;5265;50.006;9.202;2023-04-15T13:25:28;9.00;99.90
10437;DHT22;5265;50.006;9.202;2023-04-15T13:27:55;9.00;99.90
10437;DHT22;5265;50.006;9.202;2023-04-15T13:30:23;8.80;99.90
10437;DHT22;5265;50.006;9.202;2023-04-15T13:32:50;8.90;99.90
10437;DHT22;5265;50.006;9.202;2023-04-15T13:35:18;8.90;99.90
10437;DHT22;5265;50.006;9.202;2023-04-15T13:37:45;8.90;99.90
10437;DHT22;5265;50.006;9.202;2023-04-15T13:40:14;9.00;99.90
10437;DHT22;5265;50.006;9.202;2023-04-15T13:42:41;8.90;99.90
10437;DHT22;5265;50.006;9.202;2023-04-15T13:45:08;8.90;99.90
10437;DHT22;5265;50.006;9.202;2023-04-15T13:47:35;8.80;99.90
10437;DHT22;5265;50.006;9.202;2023-04-15T13:50:02;8.90;99.90
10437;DHT22;5265;50.006;9.202;2023-04-15T13:52:29;8.80;99.90
10437;DHT22;5265;50.006;9.202;2023-04-15T13:54:56;8.90;99.90
10437;DHT22;5265;50.006;9.202;2023-04-15T13:57:25;8.90;99.90
10437;DHT22;5265;50.006;9.202;2023-04-15T13:59:52;8.90;99.90
10437;DHT22;5265;50.006;9.202;2023-04-15T14:02:19;8.70;99.90
10437;DHT22;5265;50.006;9.202;2023-04-15T14:04:47;8.70;99.90
10437;DHT22;5265;50.006;9.202;2023-04-15T14:07:13;8.80;99.90
10437;DHT22;5265;50.006;9.202;2023-04-15T14:09:41;8.80;99.90
10437;DHT22;5265;50.006;9.202;2023-04-15T14:12:08;8.90;99.90
10437;DHT22;5265;50.006;9.202;2023-04-15T14:14:37;8.90;99.90
10437;DHT22;5265;50.006;9.202;2023-04-15T14:17:03;8.90;99.90
10437;DHT22;5265;50.006;9.202;2023-04-15T14:19:31;8.70;99.90
10437;DHT22;5265;50.006;9.202;2023-04-15T14:21:58;8.80;99.90
10437;DHT22;5265;50.006;9.202;2023-04-15T14:24:25;8.80;99.90
10437;DHT22;5265;50.006;9.202;2023-04-15T14:26:52;8.70;99.90
10437;DHT22;5265;50.006;9.202;2023-04-15T14:29:19;8.70;99.90
10437;DHT22;5265;50.006;9.202;2023-04-15T14:31:47;8.80;99.90
10437;DHT22;5265;50.006;9.202;2023-04-15T14:34:14;8.80;99.90
10437;DHT22;5265;50.006;9.202;2023-04-15T14:36:41;8.80;99.90
10437;DHT22;5265;50.006;9.202;2023-04-15T14:39:10;8.70;99.90
10437;DHT22;5265;50.006;9.202;2023-04-15T14:41:37;8.80;99.90
10437;DHT22;5265;50.006;9.202;2023-04-15T14:44:04;8.80;99.90
10437;DHT22;5265;50.006;9.202;2023-04-15T14:46:33;8.80;99.90
10437;DHT22;5265;50.006;9.202;2023-04-15T14:49:02;8.80;99.90
10437;DHT22;5265;50.006;9.202;2023-04-15T14:51:29;8.80;99.90
10437;DHT22;5265;50.006;9.202;2023-04-15T14:53:56;8.70;99.90
10437;DHT22;5265;50.006;9.202;2023-04-15T14:56:23;8.60;99.90
10437;DHT22;5265;50.006;9.202;2023-04-15T14:58:50;8.70;99.90
10437;DHT22;5265;50.006;9.202;2023-04-15T15:01:17;8.80;99.90
10437;DHT22;5265;50.006;9.202;2023-04-15T15:03:44;8.80;99.90
10437;DHT22;5265;50.006;9.202;2023-04-15T15:06:13;8.80;99.90
10437;DHT22;5265;50.006;9.202;2023-04-15T15:08:40;8.80;99.90
10437;DHT22;5265;50.006;9.202;2023-04-15T15:11:07;8.70;99.90
10437;DHT22;5265;50.006;9.202;2023-04-15T15:13:33;8.60;99.90
10437;DHT22;5265;50.006;9.202;2023-04-15T15:16:01;8.70;99.90
10437;DHT22;5265;50.006;9.202;2023-04-15T15:18:28;8.70;99.90
10437;DHT22;5265;50.006;9.202;2023-04-15T15:20:55;8.70;99.90
10437;DHT22;5265;50.006;9.202;2023-04-15T15:23:23;8.60;99.90
10437;DHT22;5265;50.006;9.202;2023-04-15T15:25:51;8.70;99.90
10437;DHT22;5265;50.006;9.202;2023-04-15T15:28:17;8.70;99.90
10437;DHT22;5265;50.006;9.202;2023-04-15T15:30:46;8.70;99.90
10437;DHT22;5265;50.006;9.202;2023-04-15T15:33:13;8.70;99.90
10437;DHT22;5265;50.006;9.202;2023-04-15T15:35:40;8.80;99.90
10437;DHT22;5265;50.006;9.202;2023-04-15T15:38:07;8.80;99.90
10437;DHT22;5265;50.006;9.202;2023-04-15T15:40:35;8.80;99.90
10437;DHT22;5265;50.006;9.202;2023-04-15T15:43:02;8.70;99.90
10437;DHT22;5265;50.006;9.202;2023-04-15T15:45:29;8.70;99.90
10437;DHT22;5265;50.006;9.202;2023-04-15T15:47:56;8.80;99.90
10437;DHT22;5265;50.006;9.202;2023-04-15T15:50:23;8.70;99.90
10437;DHT22;5265;50.006;9.202;2023-04-15T15:52:50;8.70;99.90
10437;DHT22;5265;50.006;9.202;2023-04-15T15:55:17;8.70;99.90
10437;DHT22;5265;50.006;9.202;2023-04-15T15:57:45;8.70;99.90
10437;DHT22;5265;50.006;9.202;2023-04-15T16:00:13;8.80;99.90
10437;DHT22;5265;50.006;9.202;2023-04-15T16:02:41;8.70;99.90
10437;DHT22;5265;50.006;9.202;2023-04-15T16:05:08;8.70;99.90